sensor_id;sensor_type;location;lat;lon;timestamp;P1;durP1;ratioP1;P2;durP2;ratioP2
73089;SDS011;61269;49.450;8.610;2022-11-20T00:00:54;13.77;;;6.70;;
73089;SDS011;61269;49.450;8.610;2022-11-20T00:03:22;12.73;;;6.45;;
73089;SDS011;61269;49.450;8.610;2022-11-20T00:05:51;13.45;;;6.55;;
73089;SDS011;61269;49.450;8.610;2022-11-20T00:08:20;13.65;;;6.53;;
73089;SDS011;61269;49.450;8.610;2022-11-20T00:10:48;12.65;;;6.45;;
73089;SDS011;61269;49.450;8.610;2022-11-20T00:13:16;12.20;;;6.00;;
73089;SDS011;61269;49.450;8.610;2022-11-20T00:15:44;13.85;;;6.38;;
73089;SDS011;61269;49.450;8.610;2022-11-20T00:18:12;14.65;;;7.22;;
73089;SDS011;61269;49.450;8.610;2022-11-20T00:20:40;15.23;;;7.65;;
73089;SDS011;61269;49.450;8.610;2022-11-20T00:23:08;12.68;;;6.43;;
73089;SDS011;61269;49.450;8.610;2022-11-20T00:25:37;12.13;;;6.20;;
73089;SDS011;61269;49.450;8.610;2022-11-20T00:28:05;14.85;;;7.07;;
73089;SDS011;61269;49.450;8.610;2022-11-20T00:30:34;14.73;;;7.22;;
73089;SDS011;61269;49.450;8.610;2022-11-20T00:33:02;12.98;;;6.43;;
73089;SDS011;61269;49.450;8.610;2022-11-20T00:35:30;12.13;;;6.03;;
73089;SDS011;61269;49.450;8.610;2022-11-20T00:37:58;11.97;;;5.80;;
73089;SDS011;61269;49.450;8.610;2022-11-20T00:40:26;14.25;;;6.65;;
73089;SDS011;61269;49.450;8.610;2022-11-20T00:42:55;14.93;;;6.40;;
73089;SDS011;61269;49.450;8.610;2022-11-20T00:45:23;13.23;;;5.97;;
73089;SDS011;61269;49.450;8.610;2022-11-20T00:47:51;9.88;;;5.68;;
73089;SDS011;61269;49.450;8.610;2022-11-20T00:50:19;10.63;;;4.67;;
73089;SDS011;61269;49.450;8.610;2022-11-20T00:52:47;10.63;;;5.30;;
73089;SDS011;61269;49.450;8.610;2022-11-20T00:55:15;12.38;;;5.63;;
73089;SDS011;61269;49.450;8.610;2022-11-20T00:57:43;10.63;;;5.50;;
73089;SDS011;61269;49.450;8.610;2022-11-20T01:02:42;10.67;;;4.77;;
73089;SDS011;61269;49.450;8.610;2022-11-20T01:05:10;10.43;;;5.60;;
73089;SDS011;61269;49.450;8.610;2022-11-20T01:07:38;14.73;;;8.05;;
73089;SDS011;61269;49.450;8.610;2022-11-20T01:10:07;23.42;;;12.18;;
73089;SDS011;61269;49.450;8.610;2022-11-20T01:12:35;19.00;;;9.30;;
73089;SDS011;61269;49.450;8.610;2022-11-20T01:15:04;20.13;;;10.67;;
73089;SDS011;61269;49.450;8.610;2022-11-20T01:17:34;17.17;;;9.95;;
73089;SDS011;61269;49.450;8.610;2022-11-20T01:20:02;13.00;;;7.68;;
73089;SDS011;61269;49.450;8.610;2022-11-20T01:22:30;10.02;;;5.35;;
73089;SDS011;61269;49.450;8.610;2022-11-20T01:24:58;10.95;;;4.88;;
73089;SDS011;61269;49.450;8.610;2022-11-20T01:27:26;9.93;;;5.27;;
73089;SDS011;61269;49.450;8.610;2022-11-20T01:29:54;9.85;;;5.18;;
73089;SDS011;61269;49.450;8.610;2022-11-20T01:32:27;11.65;;;5.65;;
73089;SDS011;61269;49.450;8.610;2022-11-20T01:34:56;10.57;;;4.93;;
73089;SDS011;61269;49.450;8.610;2022-11-20T01:37:24;10.00;;;4.90;;
73089;SDS011;61269;49.450;8.610;2022-11-20T01:39:52;10.27;;;5.00;;
73089;SDS011;61269;49.450;8.610;2022-11-20T01:42:20;12.13;;;5.32;;
73089;SDS011;61269;49.450;8.610;2022-11-20T01:48:06;12.40;;;5.70;;
73089;SDS011;61269;49.450;8.610;2022-11-20T01:50:36;12.10;;;6.38;;
73089;SDS011;61269;49.450;8.610;2022-11-20T01:53:05;11.40;;;5.63;;
73089;SDS011;61269;49.450;8.610;2022-11-20T01:55:36;11.93;;;5.45;;
73089;SDS011;61269;49.450;8.610;2022-11-20T01:58:08;11.88;;;6.05;;
73089;SDS011;61269;49.450;8.610;2022-11-20T02:00:37;15.25;;;6.03;;
73089;SDS011;61269;49.450;8.610;2022-11-20T02:03:05;14.02;;;6.88;;
73089;SDS011;61269;49.450;8.610;2022-11-20T02:05:36;13.63;;;5.93;;
73089;SDS011;61269;49.450;8.610;2022-11-20T02:08:07;13.77;;;7.03;;
73089;SDS011;61269;49.450;8.610;2022-11-20T02:10:35;15.63;;;6.43;;
73089;SDS011;61269;49.450;8.610;2022-11-20T02:13:03;13.68;;;6.35;;
73089;SDS011;61269;49.450;8.610;2022-11-20T02:15:49;13.20;;;6.50;;
73089;SDS011;61269;49.450;8.610;2022-11-20T02:18:18;13.57;;;6.93;;
73089;SDS011;61269;49.450;8.610;2022-11-20T02:20:51;14.43;;;6.75;;
73089;SDS011;61269;49.450;8.610;2022-11-20T02:23:23;13.48;;;6.68;;
73089;SDS011;61269;49.450;8.610;2022-11-20T02:25:54;14.35;;;7.20;;
73089;SDS011;61269;49.450;8.610;2022-11-20T02:28:23;14.90;;;7.00;;
73089;SDS011;61269;49.450;8.610;2022-11-20T02:30:52;13.43;;;6.47;;
73089;SDS011;61269;49.450;8.610;2022-11-20T02:33:19;16.05;;;7.43;;
73089;SDS011;61269;49.450;8.610;2022-11-20T02:35:48;14.63;;;6.93;;
73089;SDS011;61269;49.450;8.610;2022-11-20T02:38:15;15.93;;;7.18;;
73089;SDS011;61269;49.450;8.610;2022-11-20T02:40:44;15.15;;;6.90;;
73089;SDS011;61269;49.450;8.610;2022-11-20T02:43:16;13.07;;;6.13;;
73089;SDS011;61269;49.450;8.610;2022-11-20T02:45:44;12.85;;;6.03;;
73089;SDS011;61269;49.450;8.610;2022-11-20T02:48:12;16.85;;;6.38;;
73089;SDS011;61269;49.450;8.610;2022-11-20T02:50:40;16.05;;;7.22;;
73089;SDS011;61269;49.450;8.610;2022-11-20T02:53:09;16.33;;;7.15;;
73089;SDS011;61269;49.450;8.610;2022-11-20T02:55:37;15.53;;;6.67;;
73089;SDS011;61269;49.450;8.610;2022-11-20T02:58:05;14.13;;;6.55;;
73089;SDS011;61269;49.450;8.610;2022-11-20T03:00:35;15.15;;;7.15;;
73089;SDS011;61269;49.450;8.610;2022-11-20T03:03:02;15.68;;;6.80;;
73089;SDS011;61269;49.450;8.610;2022-11-20T03:05:31;15.30;;;6.82;;
73089;SDS011;61269;49.450;8.610;2022-11-20T03:07:59;14.63;;;6.67;;
73089;SDS011;61269;49.450;8.610;2022-11-20T03:10:27;14.63;;;6.80;;
73089;SDS011;61269;49.450;8.610;2022-11-20T03:12:55;14.23;;;6.22;;
73089;SDS011;61269;49.450;8.610;2022-11-20T03:15:23;13.35;;;6.22;;
73089;SDS011;61269;49.450;8.610;2022-11-20T03:17:54;13.57;;;6.65;;
73089;SDS011;61269;49.450;8.610;2022-11-20T03:20:22;12.57;;;6.10;;
73089;SDS011;61269;49.450;8.610;2022-11-20T03:22:50;13.52;;;5.97;;
73089;SDS011;61269;49.450;8.610;2022-11-20T03:25:21;13.23;;;6.25;;
73089;SDS011;61269;49.450;8.610;2022-11-20T03:27:49;13.30;;;6.00;;
73089;SDS011;61269;49.450;8.610;2022-11-20T03:30:17;13.00;;;6.25;;
73089;SDS011;61269;49.450;8.610;2022-11-20T03:32:45;15.00;;;6.27;;
73089;SDS011;61269;49.450;8.610;2022-11-20T03:35:15;12.70;;;5.97;;
73089;SDS011;61269;49.450;8.610;2022-11-20T03:37:44;12.80;;;5.55;;
73089;SDS011;61269;49.450;8.610;2022-11-20T03:40:12;11.88;;;6.05;;
73089;SDS011;61269;49.450;8.610;2022-11-20T03:42:40;12.90;;;6.00;;
73089;SDS011;61269;49.450;8.610;2022-11-20T03:45:15;12.20;;;5.23;;
73089;SDS011;61269;49.450;8.610;2022-11-20T03:47:44;11.38;;;5.30;;
73089;SDS011;61269;49.450;8.610;2022-11-20T03:50:12;12.63;;;6.20;;
73089;SDS011;61269;49.450;8.610;2022-11-20T03:52:42;11.45;;;6.03;;
73089;SDS011;61269;49.450;8.610;2022-11-20T03:55:10;13.13;;;5.78;;
73089;SDS011;61269;49.450;8.610;2022-11-20T03:57:38;14.37;;;6.13;;
73089;SDS011;61269;49.450;8.610;2022-11-20T04:00:06;13.20;;;5.90;;
73089;SDS011;61269;49.450;8.610;2022-11-20T04:02:35;11.48;;;5.68;;
73089;SDS011;61269;49.450;8.610;2022-11-20T04:05:03;11.88;;;5.97;;
73089;SDS011;61269;49.450;8.610;2022-11-20T04:07:33;13.13;;;5.80;;
73089;SDS011;61269;49.450;8.610;2022-11-20T04:10:03;12.90;;;6.23;;
73089;SDS011;61269;49.450;8.610;2022-11-20T04:12:32;11.85;;;5.60;;
73089;SDS011;61269;49.450;8.610;2022-11-20T04:15:01;13.25;;;6.47;;
73089;SDS011;61269;49.450;8.610;2022-11-20T04:17:29;12.35;;;6.13;;
73089;SDS011;61269;49.450;8.610;2022-11-20T04:19:57;12.82;;;5.53;;
73089;SDS011;61269;49.450;8.610;2022-11-20T04:22:25;12.57;;;6.77;;
73089;SDS011;61269;49.450;8.610;2022-11-20T04:24:53;13.48;;;6.85;;
73089;SDS011;61269;49.450;8.610;2022-11-20T04:27:22;13.20;;;5.95;;
73089;SDS011;61269;49.450;8.610;2022-11-20T04:29:50;12.73;;;6.72;;
73089;SDS011;61269;49.450;8.610;2022-11-20T04:32:18;12.30;;;5.85;;
73089;SDS011;61269;49.450;8.610;2022-11-20T04:34:46;13.43;;;5.93;;
73089;SDS011;61269;49.450;8.610;2022-11-20T04:37:14;12.45;;;5.78;;
73089;SDS011;61269;49.450;8.610;2022-11-20T04:39:42;13.15;;;6.78;;
73089;SDS011;61269;49.450;8.610;2022-11-20T04:42:10;11.38;;;5.85;;
73089;SDS011;61269;49.450;8.610;2022-11-20T04:44:58;13.40;;;6.28;;
73089;SDS011;61269;49.450;8.610;2022-11-20T04:47:26;13.23;;;5.70;;
73089;SDS011;61269;49.450;8.610;2022-11-20T04:49:54;11.85;;;5.85;;
73089;SDS011;61269;49.450;8.610;2022-11-20T04:52:22;11.98;;;5.93;;
73089;SDS011;61269;49.450;8.610;2022-11-20T04:54:50;15.13;;;6.53;;
73089;SDS011;61269;49.450;8.610;2022-11-20T04:57:19;12.00;;;6.13;;
73089;SDS011;61269;49.450;8.610;2022-11-20T04:59:48;15.40;;;6.27;;
73089;SDS011;61269;49.450;8.610;2022-11-20T05:02:17;11.85;;;5.30;;
73089;SDS011;61269;49.450;8.610;2022-11-20T05:04:45;12.32;;;5.95;;
73089;SDS011;61269;49.450;8.610;2022-11-20T05:07:13;11.35;;;5.75;;
73089;SDS011;61269;49.450;8.610;2022-11-20T05:09:41;13.13;;;6.30;;
73089;SDS011;61269;49.450;8.610;2022-11-20T05:12:09;13.13;;;6.57;;
73089;SDS011;61269;49.450;8.610;2022-11-20T05:14:38;11.43;;;6.07;;
73089;SDS011;61269;49.450;8.610;2022-11-20T05:17:06;12.43;;;6.00;;
73089;SDS011;61269;49.450;8.610;2022-11-20T05:19:39;11.95;;;5.88;;
73089;SDS011;61269;49.450;8.610;2022-11-20T05:22:07;11.98;;;5.60;;
73089;SDS011;61269;49.450;8.610;2022-11-20T05:24:35;11.80;;;6.30;;
73089;SDS011;61269;49.450;8.610;2022-11-20T05:27:03;12.02;;;5.68;;
73089;SDS011;61269;49.450;8.610;2022-11-20T05:29:31;12.15;;;6.10;;
73089;SDS011;61269;49.450;8.610;2022-11-20T05:31:59;12.73;;;5.75;;
73089;SDS011;61269;49.450;8.610;2022-11-20T05:34:27;11.60;;;5.90;;
73089;SDS011;61269;49.450;8.610;2022-11-20T05:36:56;12.00;;;6.20;;
73089;SDS011;61269;49.450;8.610;2022-11-20T05:39:24;12.90;;;6.10;;
73089;SDS011;61269;49.450;8.610;2022-11-20T05:41:52;14.38;;;6.22;;
73089;SDS011;61269;49.450;8.610;2022-11-20T05:44:34;12.98;;;6.82;;
73089;SDS011;61269;49.450;8.610;2022-11-20T05:47:02;12.32;;;6.20;;
73089;SDS011;61269;49.450;8.610;2022-11-20T05:49:31;12.73;;;6.10;;
73089;SDS011;61269;49.450;8.610;2022-11-20T05:52:00;13.25;;;6.50;;
73089;SDS011;61269;49.450;8.610;2022-11-20T05:54:28;13.80;;;6.55;;
73089;SDS011;61269;49.450;8.610;2022-11-20T05:56:56;13.38;;;5.95;;
73089;SDS011;61269;49.450;8.610;2022-11-20T05:59:24;13.10;;;6.43;;
73089;SDS011;61269;49.450;8.610;2022-11-20T06:01:52;13.67;;;6.87;;
73089;SDS011;61269;49.450;8.610;2022-11-20T06:04:21;14.10;;;7.20;;
73089;SDS011;61269;49.450;8.610;2022-11-20T06:06:49;14.45;;;6.82;;
73089;SDS011;61269;49.450;8.610;2022-11-20T06:09:18;12.90;;;6.53;;
73089;SDS011;61269;49.450;8.610;2022-11-20T06:11:47;13.88;;;6.40;;
73089;SDS011;61269;49.450;8.610;2022-11-20T06:14:15;14.77;;;7.60;;
73089;SDS011;61269;49.450;8.610;2022-11-20T06:16:43;14.75;;;7.32;;
73089;SDS011;61269;49.450;8.610;2022-11-20T06:19:11;15.48;;;6.90;;
73089;SDS011;61269;49.450;8.610;2022-11-20T06:21:39;12.38;;;6.55;;
73089;SDS011;61269;49.450;8.610;2022-11-20T06:24:10;14.95;;;7.15;;
73089;SDS011;61269;49.450;8.610;2022-11-20T06:26:39;14.70;;;6.53;;
73089;SDS011;61269;49.450;8.610;2022-11-20T06:29:08;14.05;;;6.40;;
73089;SDS011;61269;49.450;8.610;2022-11-20T06:31:36;14.23;;;6.70;;
73089;SDS011;61269;49.450;8.610;2022-11-20T06:34:04;14.77;;;7.45;;
73089;SDS011;61269;49.450;8.610;2022-11-20T06:36:33;14.50;;;7.10;;
73089;SDS011;61269;49.450;8.610;2022-11-20T06:39:01;16.10;;;7.27;;
73089;SDS011;61269;49.450;8.610;2022-11-20T06:41:30;16.10;;;7.80;;
73089;SDS011;61269;49.450;8.610;2022-11-20T06:43:59;14.88;;;7.13;;
73089;SDS011;61269;49.450;8.610;2022-11-20T06:46:27;15.05;;;7.28;;
73089;SDS011;61269;49.450;8.610;2022-11-20T06:48:55;15.73;;;7.28;;
73089;SDS011;61269;49.450;8.610;2022-11-20T06:51:24;15.83;;;7.40;;
73089;SDS011;61269;49.450;8.610;2022-11-20T06:53:52;15.40;;;7.45;;
73089;SDS011;61269;49.450;8.610;2022-11-20T06:56:20;16.10;;;7.45;;
73089;SDS011;61269;49.450;8.610;2022-11-20T06:58:48;15.38;;;7.45;;
73089;SDS011;61269;49.450;8.610;2022-11-20T07:01:18;14.77;;;7.00;;
73089;SDS011;61269;49.450;8.610;2022-11-20T07:03:48;14.83;;;7.67;;
73089;SDS011;61269;49.450;8.610;2022-11-20T07:06:20;15.60;;;8.38;;
73089;SDS011;61269;49.450;8.610;2022-11-20T07:08:49;18.05;;;9.05;;
73089;SDS011;61269;49.450;8.610;2022-11-20T07:11:17;15.75;;;7.90;;
73089;SDS011;61269;49.450;8.610;2022-11-20T07:13:46;16.67;;;8.43;;
73089;SDS011;61269;49.450;8.610;2022-11-20T07:16:13;16.93;;;8.33;;
73089;SDS011;61269;49.450;8.610;2022-11-20T07:18:44;14.88;;;7.30;;
73089;SDS011;61269;49.450;8.610;2022-11-20T07:21:16;14.32;;;7.50;;
73089;SDS011;61269;49.450;8.610;2022-11-20T07:23:45;15.25;;;7.32;;
73089;SDS011;61269;49.450;8.610;2022-11-20T07:26:13;15.95;;;8.60;;
73089;SDS011;61269;49.450;8.610;2022-11-20T07:28:43;15.60;;;7.80;;
73089;SDS011;61269;49.450;8.610;2022-11-20T07:31:11;14.93;;;7.60;;
73089;SDS011;61269;49.450;8.610;2022-11-20T07:33:46;14.23;;;7.05;;
73089;SDS011;61269;49.450;8.610;2022-11-20T07:36:14;15.60;;;7.63;;
73089;SDS011;61269;49.450;8.610;2022-11-20T07:38:42;16.15;;;7.72;;
73089;SDS011;61269;49.450;8.610;2022-11-20T07:41:10;17.80;;;8.30;;
73089;SDS011;61269;49.450;8.610;2022-11-20T07:43:38;17.60;;;8.07;;
73089;SDS011;61269;49.450;8.610;2022-11-20T07:46:07;15.75;;;7.82;;
73089;SDS011;61269;49.450;8.610;2022-11-20T07:48:35;17.52;;;8.05;;
73089;SDS011;61269;49.450;8.610;2022-11-20T07:51:04;17.85;;;8.85;;
73089;SDS011;61269;49.450;8.610;2022-11-20T07:53:33;25.70;;;13.47;;
73089;SDS011;61269;49.450;8.610;2022-11-20T07:56:01;25.95;;;13.43;;
73089;SDS011;61269;49.450;8.610;2022-11-20T07:58:30;23.58;;;11.65;;
73089;SDS011;61269;49.450;8.610;2022-11-20T08:01:02;17.13;;;9.82;;
73089;SDS011;61269;49.450;8.610;2022-11-20T08:03:31;18.10;;;9.30;;
73089;SDS011;61269;49.450;8.610;2022-11-20T08:05:59;15.93;;;8.33;;
73089;SDS011;61269;49.450;8.610;2022-11-20T08:08:29;19.17;;;9.63;;
73089;SDS011;61269;49.450;8.610;2022-11-20T08:10:59;17.63;;;9.35;;
73089;SDS011;61269;49.450;8.610;2022-11-20T08:13:41;17.05;;;9.20;;
73089;SDS011;61269;49.450;8.610;2022-11-20T08:16:27;19.75;;;9.43;;
73089;SDS011;61269;49.450;8.610;2022-11-20T08:18:55;22.37;;;11.50;;
73089;SDS011;61269;49.450;8.610;2022-11-20T08:21:23;17.55;;;9.00;;
73089;SDS011;61269;49.450;8.610;2022-11-20T08:23:53;15.60;;;8.43;;
73089;SDS011;61269;49.450;8.610;2022-11-20T08:26:21;17.50;;;8.55;;
73089;SDS011;61269;49.450;8.610;2022-11-20T08:28:52;17.67;;;8.00;;
73089;SDS011;61269;49.450;8.610;2022-11-20T08:31:20;15.63;;;8.10;;
73089;SDS011;61269;49.450;8.610;2022-11-20T08:33:49;15.50;;;8.52;;
73089;SDS011;61269;49.450;8.610;2022-11-20T08:36:17;17.52;;;8.80;;
73089;SDS011;61269;49.450;8.610;2022-11-20T08:38:46;17.08;;;8.57;;
73089;SDS011;61269;49.450;8.610;2022-11-20T08:41:16;14.63;;;7.88;;
73089;SDS011;61269;49.450;8.610;2022-11-20T08:43:53;17.00;;;7.67;;
73089;SDS011;61269;49.450;8.610;2022-11-20T08:46:23;13.77;;;6.70;;
73089;SDS011;61269;49.450;8.610;2022-11-20T08:48:51;13.80;;;6.63;;
73089;SDS011;61269;49.450;8.610;2022-11-20T08:51:20;15.15;;;7.07;;
73089;SDS011;61269;49.450;8.610;2022-11-20T08:53:48;13.10;;;6.68;;
73089;SDS011;61269;49.450;8.610;2022-11-20T08:56:17;16.40;;;7.27;;
73089;SDS011;61269;49.450;8.610;2022-11-20T08:58:46;14.55;;;7.40;;
73089;SDS011;61269;49.450;8.610;2022-11-20T09:01:34;16.35;;;7.10;;
73089;SDS011;61269;49.450;8.610;2022-11-20T09:04:02;15.50;;;7.20;;
73089;SDS011;61269;49.450;8.610;2022-11-20T09:06:31;15.45;;;7.65;;
73089;SDS011;61269;49.450;8.610;2022-11-20T09:08:59;15.07;;;7.70;;
73089;SDS011;61269;49.450;8.610;2022-11-20T09:11:33;16.95;;;8.18;;
73089;SDS011;61269;49.450;8.610;2022-11-20T09:14:02;21.15;;;10.80;;
73089;SDS011;61269;49.450;8.610;2022-11-20T09:16:31;18.42;;;9.13;;
73089;SDS011;61269;49.450;8.610;2022-11-20T09:18:59;18.30;;;9.18;;
73089;SDS011;61269;49.450;8.610;2022-11-20T09:21:47;17.10;;;8.73;;
73089;SDS011;61269;49.450;8.610;2022-11-20T09:24:15;21.00;;;9.35;;
73089;SDS011;61269;49.450;8.610;2022-11-20T09:26:44;17.98;;;9.50;;
73089;SDS011;61269;49.450;8.610;2022-11-20T09:29:12;16.02;;;8.43;;
73089;SDS011;61269;49.450;8.610;2022-11-20T09:31:40;18.73;;;9.50;;
73089;SDS011;61269;49.450;8.610;2022-11-20T09:34:08;16.50;;;8.00;;
73089;SDS011;61269;49.450;8.610;2022-11-20T09:36:37;17.98;;;8.63;;
73089;SDS011;61269;49.450;8.610;2022-11-20T09:39:05;18.15;;;8.85;;
73089;SDS011;61269;49.450;8.610;2022-11-20T09:41:41;16.45;;;8.60;;
73089;SDS011;61269;49.450;8.610;2022-11-20T09:44:20;15.60;;;7.55;;
73089;SDS011;61269;49.450;8.610;2022-11-20T09:46:57;16.77;;;8.30;;
73089;SDS011;61269;49.450;8.610;2022-11-20T09:49:32;16.15;;;7.78;;
73089;SDS011;61269;49.450;8.610;2022-11-20T09:52:07;17.15;;;8.38;;
73089;SDS011;61269;49.450;8.610;2022-11-20T09:54:40;16.92;;;8.35;;
73089;SDS011;61269;49.450;8.610;2022-11-20T09:57:10;20.35;;;9.52;;
73089;SDS011;61269;49.450;8.610;2022-11-20T09:59:40;18.43;;;9.70;;
73089;SDS011;61269;49.450;8.610;2022-11-20T10:02:14;19.73;;;10.38;;
73089;SDS011;61269;49.450;8.610;2022-11-20T10:04:45;19.83;;;9.68;;
73089;SDS011;61269;49.450;8.610;2022-11-20T10:07:16;23.45;;;9.80;;
73089;SDS011;61269;49.450;8.610;2022-11-20T10:10:03;23.77;;;11.15;;
73089;SDS011;61269;49.450;8.610;2022-11-20T10:12:36;19.13;;;9.57;;
73089;SDS011;61269;49.450;8.610;2022-11-20T10:15:21;21.50;;;9.70;;
73089;SDS011;61269;49.450;8.610;2022-11-20T10:18:02;21.08;;;9.88;;
73089;SDS011;61269;49.450;8.610;2022-11-20T10:20:40;20.77;;;10.52;;
73089;SDS011;61269;49.450;8.610;2022-11-20T10:23:16;25.45;;;10.43;;
73089;SDS011;61269;49.450;8.610;2022-11-20T10:25:56;24.50;;;11.23;;
73089;SDS011;61269;49.450;8.610;2022-11-20T10:28:34;27.30;;;10.55;;
73089;SDS011;61269;49.450;8.610;2022-11-20T10:31:07;24.98;;;11.00;;
73089;SDS011;61269;49.450;8.610;2022-11-20T10:33:38;24.75;;;11.75;;
73089;SDS011;61269;49.450;8.610;2022-11-20T10:36:29;23.63;;;11.18;;
73089;SDS011;61269;49.450;8.610;2022-11-20T10:38:58;23.90;;;10.97;;
73089;SDS011;61269;49.450;8.610;2022-11-20T10:41:29;29.40;;;12.57;;
73089;SDS011;61269;49.450;8.610;2022-11-20T10:44:05;30.45;;;14.27;;
73089;SDS011;61269;49.450;8.610;2022-11-20T10:46:38;30.08;;;13.25;;
73089;SDS011;61269;49.450;8.610;2022-11-20T10:49:26;25.83;;;12.73;;
73089;SDS011;61269;49.450;8.610;2022-11-20T10:51:57;30.00;;;14.63;;
73089;SDS011;61269;49.450;8.610;2022-11-20T10:54:32;29.90;;;13.77;;
73089;SDS011;61269;49.450;8.610;2022-11-20T10:57:06;28.83;;;13.13;;
73089;SDS011;61269;49.450;8.610;2022-11-20T10:59:49;45.50;;;20.83;;
73089;SDS011;61269;49.450;8.610;2022-11-20T11:02:31;29.77;;;13.88;;
73089;SDS011;61269;49.450;8.610;2022-11-20T11:05:05;28.13;;;12.33;;
73089;SDS011;61269;49.450;8.610;2022-11-20T11:07:40;31.00;;;13.13;;
73089;SDS011;61269;49.450;8.610;2022-11-20T11:10:14;31.98;;;13.32;;
73089;SDS011;61269;49.450;8.610;2022-11-20T11:12:45;28.55;;;13.02;;
73089;SDS011;61269;49.450;8.610;2022-11-20T11:15:24;27.83;;;12.15;;
73089;SDS011;61269;49.450;8.610;2022-11-20T11:17:53;29.90;;;13.70;;
73089;SDS011;61269;49.450;8.610;2022-11-20T11:20:22;27.42;;;12.77;;
73089;SDS011;61269;49.450;8.610;2022-11-20T11:22:52;29.90;;;14.15;;
73089;SDS011;61269;49.450;8.610;2022-11-20T11:25:23;28.95;;;15.15;;
73089;SDS011;61269;49.450;8.610;2022-11-20T11:27:55;31.10;;;16.33;;
73089;SDS011;61269;49.450;8.610;2022-11-20T11:30:26;26.07;;;11.97;;
73089;SDS011;61269;49.450;8.610;2022-11-20T11:33:03;26.98;;;13.10;;
73089;SDS011;61269;49.450;8.610;2022-11-20T11:35:33;23.58;;;11.18;;
73089;SDS011;61269;49.450;8.610;2022-11-20T11:38:02;21.63;;;11.02;;
73089;SDS011;61269;49.450;8.610;2022-11-20T11:40:32;20.13;;;11.20;;
73089;SDS011;61269;49.450;8.610;2022-11-20T11:43:04;20.03;;;10.80;;
73089;SDS011;61269;49.450;8.610;2022-11-20T11:45:55;17.15;;;9.25;;
73089;SDS011;61269;49.450;8.610;2022-11-20T11:48:22;18.38;;;9.48;;
73089;SDS011;61269;49.450;8.610;2022-11-20T11:50:50;19.20;;;11.05;;
73089;SDS011;61269;49.450;8.610;2022-11-20T11:53:19;17.33;;;9.63;;
73089;SDS011;61269;49.450;8.610;2022-11-20T11:55:49;17.37;;;10.43;;
73089;SDS011;61269;49.450;8.610;2022-11-20T11:58:31;15.00;;;8.63;;
73089;SDS011;61269;49.450;8.610;2022-11-20T12:01:04;16.02;;;9.10;;
73089;SDS011;61269;49.450;8.610;2022-11-20T12:03:38;14.93;;;8.63;;
73089;SDS011;61269;49.450;8.610;2022-11-20T12:06:10;13.77;;;7.47;;
73089;SDS011;61269;49.450;8.610;2022-11-20T12:08:41;12.83;;;6.80;;
73089;SDS011;61269;49.450;8.610;2022-11-20T12:11:13;12.60;;;5.90;;
73089;SDS011;61269;49.450;8.610;2022-11-20T12:13:48;11.25;;;6.20;;
73089;SDS011;61269;49.450;8.610;2022-11-20T12:16:20;9.88;;;5.60;;
73089;SDS011;61269;49.450;8.610;2022-11-20T12:18:49;11.07;;;5.68;;
73089;SDS011;61269;49.450;8.610;2022-11-20T12:21:19;11.67;;;5.90;;
73089;SDS011;61269;49.450;8.610;2022-11-20T12:23:53;12.32;;;5.97;;
73089;SDS011;61269;49.450;8.610;2022-11-20T12:26:29;11.15;;;5.70;;
73089;SDS011;61269;49.450;8.610;2022-11-20T12:29:07;12.70;;;6.40;;
73089;SDS011;61269;49.450;8.610;2022-11-20T12:31:42;11.63;;;6.03;;
73089;SDS011;61269;49.450;8.610;2022-11-20T12:34:23;12.37;;;6.13;;
73089;SDS011;61269;49.450;8.610;2022-11-20T12:37:00;12.27;;;6.00;;
73089;SDS011;61269;49.450;8.610;2022-11-20T12:39:35;11.95;;;6.30;;
73089;SDS011;61269;49.450;8.610;2022-11-20T12:45:30;20.83;;;9.93;;
73089;SDS011;61269;49.450;8.610;2022-11-20T12:51:23;10.65;;;5.38;;
73089;SDS011;61269;49.450;8.610;2022-11-20T12:54:02;9.95;;;4.30;;
73089;SDS011;61269;49.450;8.610;2022-11-20T12:56:38;11.77;;;5.72;;
73089;SDS011;61269;49.450;8.610;2022-11-20T13:02:03;10.23;;;4.27;;
73089;SDS011;61269;49.450;8.610;2022-11-20T13:04:44;8.07;;;3.65;;
73089;SDS011;61269;49.450;8.610;2022-11-20T13:07:22;8.57;;;3.60;;
73089;SDS011;61269;49.450;8.610;2022-11-20T13:09:52;9.25;;;3.40;;
73089;SDS011;61269;49.450;8.610;2022-11-20T13:12:23;6.57;;;2.90;;
73089;SDS011;61269;49.450;8.610;2022-11-20T13:14:53;8.43;;;3.07;;
73089;SDS011;61269;49.450;8.610;2022-11-20T13:17:28;7.85;;;3.13;;
73089;SDS011;61269;49.450;8.610;2022-11-20T13:19:58;9.20;;;3.00;;
73089;SDS011;61269;49.450;8.610;2022-11-20T13:22:29;6.60;;;3.13;;
73089;SDS011;61269;49.450;8.610;2022-11-20T13:25:09;8.10;;;3.10;;
73089;SDS011;61269;49.450;8.610;2022-11-20T13:27:46;7.23;;;2.80;;
73089;SDS011;61269;49.450;8.610;2022-11-20T13:30:15;8.05;;;2.80;;
73089;SDS011;61269;49.450;8.610;2022-11-20T13:32:49;6.35;;;2.13;;
73089;SDS011;61269;49.450;8.610;2022-11-20T13:35:26;7.10;;;2.83;;
73089;SDS011;61269;49.450;8.610;2022-11-20T13:38:01;7.10;;;2.92;;
73089;SDS011;61269;49.450;8.610;2022-11-20T13:40:31;6.70;;;2.93;;
73089;SDS011;61269;49.450;8.610;2022-11-20T13:43:15;4.35;;;1.35;;
73089;SDS011;61269;49.450;8.610;2022-11-20T13:45:56;7.22;;;1.80;;
73089;SDS011;61269;49.450;8.610;2022-11-20T13:48:27;7.55;;;1.80;;
73089;SDS011;61269;49.450;8.610;2022-11-20T13:51:04;5.68;;;2.28;;
73089;SDS011;61269;49.450;8.610;2022-11-20T13:53:42;8.37;;;1.90;;
73089;SDS011;61269;49.450;8.610;2022-11-20T13:56:19;5.60;;;1.77;;
73089;SDS011;61269;49.450;8.610;2022-11-20T13:58:55;5.25;;;1.60;;
73089;SDS011;61269;49.450;8.610;2022-11-20T14:01:31;4.88;;;1.40;;
73089;SDS011;61269;49.450;8.610;2022-11-20T14:03:59;4.10;;;1.40;;
73089;SDS011;61269;49.450;8.610;2022-11-20T14:06:33;7.97;;;2.37;;
73089;SDS011;61269;49.450;8.610;2022-11-20T14:09:04;10.50;;;2.88;;
73089;SDS011;61269;49.450;8.610;2022-11-20T14:11:32;5.90;;;1.92;;
73089;SDS011;61269;49.450;8.610;2022-11-20T14:14:00;7.47;;;2.80;;
73089;SDS011;61269;49.450;8.610;2022-11-20T14:16:31;7.28;;;1.90;;
73089;SDS011;61269;49.450;8.610;2022-11-20T14:22:07;5.05;;;1.50;;
73089;SDS011;61269;49.450;8.610;2022-11-20T14:24:38;4.18;;;1.45;;
73089;SDS011;61269;49.450;8.610;2022-11-20T14:27:10;5.35;;;1.20;;
73089;SDS011;61269;49.450;8.610;2022-11-20T14:29:40;4.10;;;1.60;;
73089;SDS011;61269;49.450;8.610;2022-11-20T14:32:08;4.90;;;1.70;;
73089;SDS011;61269;49.450;8.610;2022-11-20T14:34:37;5.20;;;1.83;;
73089;SDS011;61269;49.450;8.610;2022-11-20T14:37:10;5.05;;;1.30;;
73089;SDS011;61269;49.450;8.610;2022-11-20T14:39:48;4.82;;;0.98;;
73089;SDS011;61269;49.450;8.610;2022-11-20T14:42:19;2.38;;;1.10;;
73089;SDS011;61269;49.450;8.610;2022-11-20T14:44:48;4.47;;;1.40;;
73089;SDS011;61269;49.450;8.610;2022-11-20T14:47:17;5.25;;;0.93;;
73089;SDS011;61269;49.450;8.610;2022-11-20T14:49:47;3.83;;;1.30;;
73089;SDS011;61269;49.450;8.610;2022-11-20T14:52:16;5.85;;;1.30;;
73089;SDS011;61269;49.450;8.610;2022-11-20T14:54:47;5.60;;;1.45;;
73089;SDS011;61269;49.450;8.610;2022-11-20T14:57:24;6.67;;;1.93;;
73089;SDS011;61269;49.450;8.610;2022-11-20T15:00:04;6.55;;;1.67;;
73089;SDS011;61269;49.450;8.610;2022-11-20T15:02:33;4.78;;;1.25;;
73089;SDS011;61269;49.450;8.610;2022-11-20T15:05:02;5.47;;;2.20;;
73089;SDS011;61269;49.450;8.610;2022-11-20T15:07:31;6.72;;;2.30;;
73089;SDS011;61269;49.450;8.610;2022-11-20T15:10:03;5.10;;;1.80;;
73089;SDS011;61269;49.450;8.610;2022-11-20T15:12:34;4.75;;;1.50;;
73089;SDS011;61269;49.450;8.610;2022-11-20T15:15:04;5.15;;;1.60;;